Les Mechins, Canada
Current Conditions -  °F | °C
As of 6:00 PM on Saturday 20 Dec 2014 (Local Time) from CYBC Reporting Station
Overcast Overcast  
Wind Chill: 21°   Ceiling: 1900
Heat Index: 21°   Visibility: 9mi
Dew Point: 16°   Wind: 3mph
Humidity: 80%   Direction: 290°WNW
Pressure: 30.39"   Gusts: NA
Location:  48.98°N, 66.98°W
Report Text: CYBC 202300Z AUTO 29003KT 240V300 9SM OVC019 M06/M09 A3039 RMK SLP294
Loading
Personal Weather Stations






























Interactive Weather Map New forecast layout! Learn more

10-Day Weather Forecast

Advertisements
Track Severe Weather on mobile